Austin, Texas
Traffic Map
Current Weather Conditions
Austin, Texas
Overcast Haze
Overcast
10°
Feels Like: 10°
Wind Chill: 10° Ceiling: 2700
Heat Index: 10° Visibility: 6mi
Dew Point: Wind: 0mph
Humidity: 89% Direction: ° ()
Pressure: 30.19in Gusts: 0mph
Raw Report DataKATT 210251Z AUTO 00000KT 6SM BR OVC027 10/08 A3019 RMK AO2 SLP225 T01000083 51007
Traffic Incident Summary
Active as of:
Severity:
Category:
InformationThere was an issue retrieving the traffic information for this location. Please try a different location or try again shortly.
Advertisements
Track Severe Weather on mobile